sensor_id;sensor_type;location;lat;lon;timestamp;pressure;altitude;pressure_sealevel;temperature;humidity
13612;BME280;6877;51.436;6.774;2024-01-27T00:00:56;102921.66;;;1.49;100.00
13612;BME280;6877;51.436;6.774;2024-01-27T00:03:23;102919.13;;;1.51;100.00
13612;BME280;6877;51.436;6.774;2024-01-27T00:05:49;102923.41;;;1.50;100.00
13612;BME280;6877;51.436;6.774;2024-01-27T00:08:16;102922.53;;;1.50;100.00
13612;BME280;6877;51.436;6.774;2024-01-27T00:10:42;102926.56;;;1.45;100.00
13612;BME280;6877;51.436;6.774;2024-01-27T00:13:12;102936.00;;;1.44;100.00
13612;BME280;6877;51.436;6.774;2024-01-27T00:15:39;102927.13;;;1.39;100.00
13612;BME280;6877;51.436;6.774;2024-01-27T00:18:05;102922.59;;;1.35;100.00
13612;BME280;6877;51.436;6.774;2024-01-27T00:20:37;102925.09;;;1.33;100.00
13612;BME280;6877;51.436;6.774;2024-01-27T00:23:09;102929.38;;;1.33;100.00
13612;BME280;6877;51.436;6.774;2024-01-27T00:25:35;102932.03;;;1.34;100.00
13612;BME280;6877;51.436;6.774;2024-01-27T00:28:02;102944.88;;;1.33;100.00
13612;BME280;6877;51.436;6.774;2024-01-27T00:30:33;102945.47;;;1.29;100.00
13612;BME280;6877;51.436;6.774;2024-01-27T00:33:00;102937.50;;;1.24;100.00
13612;BME280;6877;51.436;6.774;2024-01-27T00:35:26;102938.22;;;1.22;100.00
13612;BME280;6877;51.436;6.774;2024-01-27T00:37:53;102933.88;;;1.21;100.00
13612;BME280;6877;51.436;6.774;2024-01-27T00:40:19;102939.03;;;1.21;100.00
13612;BME280;6877;51.436;6.774;2024-01-27T00:42:45;102937.88;;;1.15;100.00
13612;BME280;6877;51.436;6.774;2024-01-27T00:45:12;102941.97;;;1.12;100.00
13612;BME280;6877;51.436;6.774;2024-01-27T00:47:38;102944.50;;;1.10;100.00
13612;BME280;6877;51.436;6.774;2024-01-27T00:50:06;102948.84;;;1.11;100.00
13612;BME280;6877;51.436;6.774;2024-01-27T00:52:35;102951.13;;;1.22;100.00
13612;BME280;6877;51.436;6.774;2024-01-27T00:55:06;102954.84;;;1.27;100.00
13612;BME280;6877;51.436;6.774;2024-01-27T00:57:38;102960.00;;;1.27;100.00
13612;BME280;6877;51.436;6.774;2024-01-27T01:00:08;102961.44;;;1.22;100.00
13612;BME280;6877;51.436;6.774;2024-01-27T01:02:39;102965.78;;;1.23;100.00
13612;BME280;6877;51.436;6.774;2024-01-27T01:05:12;102966.41;;;1.19;100.00
13612;BME280;6877;51.436;6.774;2024-01-27T01:07:43;102957.88;;;1.20;100.00
13612;BME280;6877;51.436;6.774;2024-01-27T01:10:15;102961.25;;;1.19;100.00
13612;BME280;6877;51.436;6.774;2024-01-27T01:12:41;102966.97;;;1.13;100.00
13612;BME280;6877;51.436;6.774;2024-01-27T01:15:13;102970.09;;;1.07;100.00
13612;BME280;6877;51.436;6.774;2024-01-27T01:17:39;102960.94;;;0.98;100.00
13612;BME280;6877;51.436;6.774;2024-01-27T01:20:06;102955.53;;;0.93;100.00
13612;BME280;6877;51.436;6.774;2024-01-27T01:22:33;102969.97;;;0.89;100.00
13612;BME280;6877;51.436;6.774;2024-01-27T01:25:05;102960.81;;;0.80;100.00
13612;BME280;6877;51.436;6.774;2024-01-27T01:27:31;102964.44;;;0.83;100.00
13612;BME280;6877;51.436;6.774;2024-01-27T01:30:03;102956.72;;;0.83;100.00
13612;BME280;6877;51.436;6.774;2024-01-27T01:32:36;102970.94;;;0.77;100.00
13612;BME280;6877;51.436;6.774;2024-01-27T01:35:02;102971.41;;;0.69;100.00
13612;BME280;6877;51.436;6.774;2024-01-27T01:37:30;102969.06;;;0.59;100.00
13612;BME280;6877;51.436;6.774;2024-01-27T01:40:01;102965.44;;;0.56;100.00
13612;BME280;6877;51.436;6.774;2024-01-27T01:42:34;102967.13;;;0.55;100.00
13612;BME280;6877;51.436;6.774;2024-01-27T01:45:00;102972.34;;;0.57;100.00
13612;BME280;6877;51.436;6.774;2024-01-27T01:47:27;102970.13;;;0.63;100.00
13612;BME280;6877;51.436;6.774;2024-01-27T01:49:54;102969.34;;;0.64;100.00
13612;BME280;6877;51.436;6.774;2024-01-27T01:52:21;102972.72;;;0.63;100.00
13612;BME280;6877;51.436;6.774;2024-01-27T01:54:49;102975.94;;;0.59;100.00
13612;BME280;6877;51.436;6.774;2024-01-27T01:57:16;102979.22;;;0.56;100.00
13612;BME280;6877;51.436;6.774;2024-01-27T01:59:48;102983.03;;;0.48;100.00
13612;BME280;6877;51.436;6.774;2024-01-27T02:02:14;102983.22;;;0.51;100.00
13612;BME280;6877;51.436;6.774;2024-01-27T02:04:47;102982.06;;;0.46;100.00
13612;BME280;6877;51.436;6.774;2024-01-27T02:07:18;102982.88;;;0.45;100.00
13612;BME280;6877;51.436;6.774;2024-01-27T02:09:50;102980.00;;;0.40;100.00
13612;BME280;6877;51.436;6.774;2024-01-27T02:12:21;102975.94;;;0.29;100.00
13612;BME280;6877;51.436;6.774;2024-01-27T02:14:48;102972.00;;;0.21;100.00
13612;BME280;6877;51.436;6.774;2024-01-27T02:17:14;102980.06;;;0.12;100.00
13612;BME280;6877;51.436;6.774;2024-01-27T02:19:40;102972.31;;;0.12;100.00
13612;BME280;6877;51.436;6.774;2024-01-27T02:22:07;102973.13;;;0.11;100.00
13612;BME280;6877;51.436;6.774;2024-01-27T02:24:38;102972.94;;;0.08;100.00
13612;BME280;6877;51.436;6.774;2024-01-27T02:27:05;102980.50;;;0.05;100.00
13612;BME280;6877;51.436;6.774;2024-01-27T02:29:36;102972.50;;;0.01;100.00
13612;BME280;6877;51.436;6.774;2024-01-27T02:32:03;102967.25;;;-0.01;100.00
13612;BME280;6877;51.436;6.774;2024-01-27T02:34:29;102977.84;;;0.04;100.00
13612;BME280;6877;51.436;6.774;2024-01-27T02:37:00;102977.09;;;0.06;100.00
13612;BME280;6877;51.436;6.774;2024-01-27T02:39:32;102979.09;;;0.10;100.00
13612;BME280;6877;51.436;6.774;2024-01-27T02:42:03;102974.13;;;0.13;100.00
13612;BME280;6877;51.436;6.774;2024-01-27T02:44:30;102980.41;;;0.18;100.00
13612;BME280;6877;51.436;6.774;2024-01-27T02:46:56;102979.09;;;0.10;100.00
13612;BME280;6877;51.436;6.774;2024-01-27T02:49:23;102971.25;;;0.09;100.00
13612;BME280;6877;51.436;6.774;2024-01-27T02:51:49;102969.50;;;0.08;100.00
13612;BME280;6877;51.436;6.774;2024-01-27T02:54:15;102982.63;;;0.12;100.00
13612;BME280;6877;51.436;6.774;2024-01-27T02:56:42;102975.72;;;0.11;100.00
13612;BME280;6877;51.436;6.774;2024-01-27T02:59:08;102975.53;;;0.08;100.00
13612;BME280;6877;51.436;6.774;2024-01-27T03:01:35;102981.00;;;-0.01;100.00
13612;BME280;6877;51.436;6.774;2024-01-27T03:04:06;102988.09;;;-0.11;100.00
13612;BME280;6877;51.436;6.774;2024-01-27T03:06:32;102985.06;;;-0.19;100.00
13612;BME280;6877;51.436;6.774;2024-01-27T03:09:04;102978.63;;;-0.26;100.00
13612;BME280;6877;51.436;6.774;2024-01-27T03:11:31;102981.81;;;-0.30;100.00
13612;BME280;6877;51.436;6.774;2024-01-27T03:14:02;102979.03;;;-0.33;100.00
13612;BME280;6877;51.436;6.774;2024-01-27T03:16:28;102974.53;;;-0.37;100.00
13612;BME280;6877;51.436;6.774;2024-01-27T03:18:55;102982.66;;;-0.44;100.00
13612;BME280;6877;51.436;6.774;2024-01-27T03:21:27;102978.91;;;-0.49;100.00
13612;BME280;6877;51.436;6.774;2024-01-27T03:23:53;102985.81;;;-0.48;100.00
13612;BME280;6877;51.436;6.774;2024-01-27T03:26:19;102980.66;;;-0.48;100.00
13612;BME280;6877;51.436;6.774;2024-01-27T03:28:51;102978.09;;;-0.48;100.00
13612;BME280;6877;51.436;6.774;2024-01-27T03:31:17;102979.78;;;-0.49;100.00
13612;BME280;6877;51.436;6.774;2024-01-27T03:33:49;102982.28;;;-0.50;100.00
13612;BME280;6877;51.436;6.774;2024-01-27T03:36:15;102991.28;;;-0.57;100.00
13612;BME280;6877;51.436;6.774;2024-01-27T03:38:42;102990.75;;;-0.51;100.00
13612;BME280;6877;51.436;6.774;2024-01-27T03:41:08;102996.78;;;-0.51;100.00
13612;BME280;6877;51.436;6.774;2024-01-27T03:43:35;103001.84;;;-0.52;100.00
13612;BME280;6877;51.436;6.774;2024-01-27T03:46:07;102994.84;;;-0.55;100.00
13612;BME280;6877;51.436;6.774;2024-01-27T03:48:33;102992.88;;;-0.59;100.00
13612;BME280;6877;51.436;6.774;2024-01-27T03:51:06;102993.38;;;-0.64;100.00
13612;BME280;6877;51.436;6.774;2024-01-27T03:53:32;102997.44;;;-0.68;100.00
13612;BME280;6877;51.436;6.774;2024-01-27T03:55:59;102999.13;;;-0.68;100.00
13612;BME280;6877;51.436;6.774;2024-01-27T03:58:33;102991.97;;;-0.73;100.00
13612;BME280;6877;51.436;6.774;2024-01-27T04:01:00;103004.47;;;-0.79;100.00
13612;BME280;6877;51.436;6.774;2024-01-27T04:03:32;103004.09;;;-0.85;100.00
13612;BME280;6877;51.436;6.774;2024-01-27T04:06:03;103012.69;;;-0.84;100.00
13612;BME280;6877;51.436;6.774;2024-01-27T04:08:30;103011.00;;;-0.84;100.00
13612;BME280;6877;51.436;6.774;2024-01-27T04:10:56;103009.09;;;-0.86;100.00
13612;BME280;6877;51.436;6.774;2024-01-27T04:13:23;103018.09;;;-0.93;100.00
13612;BME280;6877;51.436;6.774;2024-01-27T04:15:49;103010.19;;;-0.96;100.00
13612;BME280;6877;51.436;6.774;2024-01-27T04:18:17;103017.31;;;-0.92;100.00
13612;BME280;6877;51.436;6.774;2024-01-27T04:20:49;103012.28;;;-0.90;100.00
13612;BME280;6877;51.436;6.774;2024-01-27T04:23:15;103015.94;;;-0.87;100.00
13612;BME280;6877;51.436;6.774;2024-01-27T04:25:43;103021.97;;;-0.86;100.00
13612;BME280;6877;51.436;6.774;2024-01-27T04:28:09;103021.06;;;-0.87;100.00
13612;BME280;6877;51.436;6.774;2024-01-27T04:30:43;103026.31;;;-0.85;100.00
13612;BME280;6877;51.436;6.774;2024-01-27T04:33:14;103027.97;;;-0.86;100.00
13612;BME280;6877;51.436;6.774;2024-01-27T04:35:46;103028.59;;;-0.90;100.00
13612;BME280;6877;51.436;6.774;2024-01-27T04:38:12;103026.03;;;-0.90;100.00
13612;BME280;6877;51.436;6.774;2024-01-27T04:40:38;103036.31;;;-0.90;100.00
13612;BME280;6877;51.436;6.774;2024-01-27T04:43:10;103029.06;;;-0.96;100.00
13612;BME280;6877;51.436;6.774;2024-01-27T04:45:40;103022.66;;;-1.02;100.00
13612;BME280;6877;51.436;6.774;2024-01-27T04:48:07;103027.50;;;-1.07;100.00
13612;BME280;6877;51.436;6.774;2024-01-27T04:50:33;103016.31;;;-1.07;100.00
13612;BME280;6877;51.436;6.774;2024-01-27T04:53:00;103022.25;;;-1.08;100.00
13612;BME280;6877;51.436;6.774;2024-01-27T04:55:32;103020.28;;;-1.12;100.00
13612;BME280;6877;51.436;6.774;2024-01-27T04:58:04;103013.38;;;-1.13;100.00
13612;BME280;6877;51.436;6.774;2024-01-27T05:00:30;103015.13;;;-1.12;100.00
13612;BME280;6877;51.436;6.774;2024-01-27T05:02:57;103008.78;;;-1.18;100.00
13612;BME280;6877;51.436;6.774;2024-01-27T05:05:26;103011.84;;;-1.23;100.00
13612;BME280;6877;51.436;6.774;2024-01-27T05:07:57;103012.25;;;-1.17;100.00
13612;BME280;6877;51.436;6.774;2024-01-27T05:10:24;103002.09;;;-1.15;100.00
13612;BME280;6877;51.436;6.774;2024-01-27T05:12:51;103011.38;;;-1.18;100.00
13612;BME280;6877;51.436;6.774;2024-01-27T05:15:18;103008.72;;;-1.19;100.00
13612;BME280;6877;51.436;6.774;2024-01-27T05:17:49;103002.78;;;-1.18;100.00
13612;BME280;6877;51.436;6.774;2024-01-27T05:20:17;103005.47;;;-1.17;100.00
13612;BME280;6877;51.436;6.774;2024-01-27T05:22:44;103007.91;;;-1.18;100.00
13612;BME280;6877;51.436;6.774;2024-01-27T05:25:15;102995.66;;;-1.22;100.00
13612;BME280;6877;51.436;6.774;2024-01-27T05:27:48;103006.63;;;-1.25;100.00
13612;BME280;6877;51.436;6.774;2024-01-27T05:30:19;103012.75;;;-1.23;100.00
13612;BME280;6877;51.436;6.774;2024-01-27T05:32:51;103004.13;;;-1.23;100.00
13612;BME280;6877;51.436;6.774;2024-01-27T05:35:17;103006.41;;;-1.28;100.00
13612;BME280;6877;51.436;6.774;2024-01-27T05:37:49;103006.41;;;-1.28;100.00
13612;BME280;6877;51.436;6.774;2024-01-27T05:40:17;103007.09;;;-1.30;100.00
13612;BME280;6877;51.436;6.774;2024-01-27T05:42:43;103016.28;;;-1.34;100.00
13612;BME280;6877;51.436;6.774;2024-01-27T05:45:11;103013.53;;;-1.37;100.00
13612;BME280;6877;51.436;6.774;2024-01-27T05:47:43;103021.34;;;-1.35;100.00
13612;BME280;6877;51.436;6.774;2024-01-27T05:50:10;103026.16;;;-1.40;100.00
13612;BME280;6877;51.436;6.774;2024-01-27T05:52:36;103022.38;;;-1.45;100.00
13612;BME280;6877;51.436;6.774;2024-01-27T05:55:03;103014.59;;;-1.47;100.00
13612;BME280;6877;51.436;6.774;2024-01-27T05:57:32;103019.44;;;-1.51;100.00
13612;BME280;6877;51.436;6.774;2024-01-27T05:59:59;103017.03;;;-1.48;100.00
13612;BME280;6877;51.436;6.774;2024-01-27T06:02:26;103011.91;;;-1.48;100.00
13612;BME280;6877;51.436;6.774;2024-01-27T06:04:52;103016.88;;;-1.51;100.00
13612;BME280;6877;51.436;6.774;2024-01-27T06:07:19;103025.13;;;-1.55;100.00
13612;BME280;6877;51.436;6.774;2024-01-27T06:09:45;103024.03;;;-1.59;100.00
13612;BME280;6877;51.436;6.774;2024-01-27T06:12:12;103026.94;;;-1.54;100.00
13612;BME280;6877;51.436;6.774;2024-01-27T06:14:38;103021.09;;;-1.52;100.00
13612;BME280;6877;51.436;6.774;2024-01-27T06:17:05;103020.13;;;-1.54;100.00
13612;BME280;6877;51.436;6.774;2024-01-27T06:19:32;103023.34;;;-1.56;100.00
13612;BME280;6877;51.436;6.774;2024-01-27T06:22:03;103022.75;;;-1.52;100.00
13612;BME280;6877;51.436;6.774;2024-01-27T06:24:35;103023.66;;;-1.52;100.00
13612;BME280;6877;51.436;6.774;2024-01-27T06:27:06;103017.75;;;-1.51;100.00
13612;BME280;6877;51.436;6.774;2024-01-27T06:29:32;103013.59;;;-1.49;100.00
13612;BME280;6877;51.436;6.774;2024-01-27T06:32:04;103028.03;;;-1.51;100.00
13612;BME280;6877;51.436;6.774;2024-01-27T06:34:32;103025.34;;;-1.52;100.00
13612;BME280;6877;51.436;6.774;2024-01-27T06:37:03;103026.94;;;-1.54;100.00
13612;BME280;6877;51.436;6.774;2024-01-27T06:39:31;103032.34;;;-1.50;100.00
13612;BME280;6877;51.436;6.774;2024-01-27T06:41:57;103032.66;;;-1.45;100.00
13612;BME280;6877;51.436;6.774;2024-01-27T06:44:23;103037.78;;;-1.45;100.00
13612;BME280;6877;51.436;6.774;2024-01-27T06:46:55;103049.88;;;-1.44;100.00
13612;BME280;6877;51.436;6.774;2024-01-27T06:49:21;103053.31;;;-1.44;100.00
13612;BME280;6877;51.436;6.774;2024-01-27T06:51:53;103042.84;;;-1.47;100.00
13612;BME280;6877;51.436;6.774;2024-01-27T06:54:19;103054.00;;;-1.46;100.00
13612;BME280;6877;51.436;6.774;2024-01-27T06:56:50;103054.78;;;-1.47;100.00
13612;BME280;6877;51.436;6.774;2024-01-27T06:59:22;103052.22;;;-1.47;100.00
13612;BME280;6877;51.436;6.774;2024-01-27T07:01:48;103060.53;;;-1.51;100.00
13612;BME280;6877;51.436;6.774;2024-01-27T07:04:15;103046.75;;;-1.52;100.00
13612;BME280;6877;51.436;6.774;2024-01-27T07:06:41;103056.16;;;-1.52;100.00
13612;BME280;6877;51.436;6.774;2024-01-27T07:09:08;103045.59;;;-1.57;100.00
13612;BME280;6877;51.436;6.774;2024-01-27T07:11:36;103054.69;;;-1.49;100.00
13612;BME280;6877;51.436;6.774;2024-01-27T07:14:03;103058.47;;;-1.44;100.00
13612;BME280;6877;51.436;6.774;2024-01-27T07:16:35;103061.91;;;-1.43;100.00
13612;BME280;6877;51.436;6.774;2024-01-27T07:19:07;103062.91;;;-1.41;100.00
13612;BME280;6877;51.436;6.774;2024-01-27T07:21:38;103062.13;;;-1.40;100.00
13612;BME280;6877;51.436;6.774;2024-01-27T07:24:09;103061.31;;;-1.39;100.00
13612;BME280;6877;51.436;6.774;2024-01-27T07:26:36;103060.75;;;-1.35;100.00
13612;BME280;6877;51.436;6.774;2024-01-27T07:29:02;103056.50;;;-1.34;100.00
13612;BME280;6877;51.436;6.774;2024-01-27T07:31:29;103062.44;;;-1.35;100.00
13612;BME280;6877;51.436;6.774;2024-01-27T07:34:00;103060.97;;;-1.32;100.00
13612;BME280;6877;51.436;6.774;2024-01-27T07:36:26;103065.50;;;-1.28;100.00
13612;BME280;6877;51.436;6.774;2024-01-27T07:39:02;103068.50;;;-1.22;100.00
13612;BME280;6877;51.436;6.774;2024-01-27T07:41:31;103075.03;;;-1.13;100.00
13612;BME280;6877;51.436;6.774;2024-01-27T07:44:10;103075.22;;;-1.10;100.00
13612;BME280;6877;51.436;6.774;2024-01-27T07:46:37;103079.59;;;-1.09;100.00
13612;BME280;6877;51.436;6.774;2024-01-27T07:49:06;103074.66;;;-1.06;100.00
13612;BME280;6877;51.436;6.774;2024-01-27T07:51:33;103077.41;;;-1.03;100.00
13612;BME280;6877;51.436;6.774;2024-01-27T07:54:00;103078.50;;;-1.00;100.00
13612;BME280;6877;51.436;6.774;2024-01-27T07:56:27;103083.94;;;-0.95;100.00
13612;BME280;6877;51.436;6.774;2024-01-27T07:58:58;103088.59;;;-0.89;100.00
13612;BME280;6877;51.436;6.774;2024-01-27T08:01:30;103094.81;;;-0.86;100.00
13612;BME280;6877;51.436;6.774;2024-01-27T08:03:56;103101.16;;;-0.81;100.00
13612;BME280;6877;51.436;6.774;2024-01-27T08:06:29;103103.16;;;-0.77;100.00
13612;BME280;6877;51.436;6.774;2024-01-27T08:08:56;103109.38;;;-0.73;100.00
13612;BME280;6877;51.436;6.774;2024-01-27T08:11:28;103102.06;;;-0.67;100.00
13612;BME280;6877;51.436;6.774;2024-01-27T08:13:54;103101.56;;;-0.61;100.00
13612;BME280;6877;51.436;6.774;2024-01-27T08:16:25;103108.00;;;-0.55;100.00
13612;BME280;6877;51.436;6.774;2024-01-27T08:18:52;103105.94;;;-0.47;100.00
13612;BME280;6877;51.436;6.774;2024-01-27T08:21:23;103111.47;;;-0.41;100.00
13612;BME280;6877;51.436;6.774;2024-01-27T08:23:50;103105.81;;;-0.35;100.00
13612;BME280;6877;51.436;6.774;2024-01-27T08:26:21;103105.44;;;-0.28;100.00
13612;BME280;6877;51.436;6.774;2024-01-27T08:28:53;103105.00;;;-0.21;100.00
13612;BME280;6877;51.436;6.774;2024-01-27T08:31:22;103115.78;;;-0.13;100.00
13612;BME280;6877;51.436;6.774;2024-01-27T08:33:54;103117.16;;;-0.05;100.00
13612;BME280;6877;51.436;6.774;2024-01-27T08:36:25;103122.09;;;0.05;100.00
13612;BME280;6877;51.436;6.774;2024-01-27T08:38:57;103117.44;;;0.13;100.00
13612;BME280;6877;51.436;6.774;2024-01-27T08:41:23;103115.31;;;0.20;100.00
13612;BME280;6877;51.436;6.774;2024-01-27T08:43:55;103111.53;;;0.29;100.00
13612;BME280;6877;51.436;6.774;2024-01-27T08:46:21;103120.72;;;0.38;100.00
13612;BME280;6877;51.436;6.774;2024-01-27T08:48:53;103122.94;;;0.47;100.00
13612;BME280;6877;51.436;6.774;2024-01-27T08:51:25;103122.91;;;0.60;100.00
13612;BME280;6877;51.436;6.774;2024-01-27T08:53:56;103117.06;;;0.78;100.00
13612;BME280;6877;51.436;6.774;2024-01-27T08:56:23;103118.41;;;1.45;100.00
13612;BME280;6877;51.436;6.774;2024-01-27T08:58:54;103123.00;;;3.47;100.00
13612;BME280;6877;51.436;6.774;2024-01-27T09:01:21;103123.69;;;5.58;100.00
13612;BME280;6877;51.436;6.774;2024-01-27T09:03:52;103133.44;;;7.03;100.00
13612;BME280;6877;51.436;6.774;2024-01-27T09:06:23;103122.81;;;7.77;100.00
13612;BME280;6877;51.436;6.774;2024-01-27T09:08:50;103114.50;;;7.61;100.00
13612;BME280;6877;51.436;6.774;2024-01-27T09:11:21;103103.41;;;7.14;100.00
13612;BME280;6877;51.436;6.774;2024-01-27T09:13:54;103115.59;;;6.90;100.00
13612;BME280;6877;51.436;6.774;2024-01-27T09:16:21;103103.94;;;6.79;100.00
13612;BME280;6877;51.436;6.774;2024-01-27T09:18:52;103102.47;;;6.87;100.00
13612;BME280;6877;51.436;6.774;2024-01-27T09:21:24;103111.44;;;6.95;100.00
13612;BME280;6877;51.436;6.774;2024-01-27T09:23:55;103112.13;;;6.89;100.00
13612;BME280;6877;51.436;6.774;2024-01-27T09:26:21;103115.47;;;6.85;100.00
13612;BME280;6877;51.436;6.774;2024-01-27T09:28:49;103106.53;;;6.53;100.00
13612;BME280;6877;51.436;6.774;2024-01-27T09:31:26;103102.41;;;6.36;100.00
13612;BME280;6877;51.436;6.774;2024-01-27T09:33:56;103093.44;;;7.01;100.00
13612;BME280;6877;51.436;6.774;2024-01-27T09:36:23;103099.34;;;8.05;100.00
13612;BME280;6877;51.436;6.774;2024-01-27T09:38:50;103098.91;;;8.50;100.00
13612;BME280;6877;51.436;6.774;2024-01-27T09:41:21;103103.53;;;8.61;100.00
13612;BME280;6877;51.436;6.774;2024-01-27T09:43:54;103098.56;;;8.38;100.00
13612;BME280;6877;51.436;6.774;2024-01-27T09:46:28;103098.63;;;8.11;100.00
13612;BME280;6877;51.436;6.774;2024-01-27T09:48:56;103087.38;;;7.83;100.00
13612;BME280;6877;51.436;6.774;2024-01-27T09:51:27;103098.00;;;7.62;100.00
13612;BME280;6877;51.436;6.774;2024-01-27T09:53:54;103097.69;;;7.79;100.00
13612;BME280;6877;51.436;6.774;2024-01-27T09:56:26;103102.41;;;8.22;100.00
13612;BME280;6877;51.436;6.774;2024-01-27T09:58:57;103107.25;;;9.02;100.00
13612;BME280;6877;51.436;6.774;2024-01-27T10:01:29;103113.13;;;10.04;100.00
13612;BME280;6877;51.436;6.774;2024-01-27T10:03:56;103112.72;;;10.70;100.00
13612;BME280;6877;51.436;6.774;2024-01-27T10:06:24;103126.41;;;11.02;100.00
13612;BME280;6877;51.436;6.774;2024-01-27T10:08:56;103126.69;;;12.36;100.00
13612;BME280;6877;51.436;6.774;2024-01-27T10:11:23;103141.88;;;13.58;90.57
13612;BME280;6877;51.436;6.774;2024-01-27T10:13:57;103151.84;;;14.08;85.69
13612;BME280;6877;51.436;6.774;2024-01-27T10:16:42;103158.75;;;12.85;85.55
13612;BME280;6877;51.436;6.774;2024-01-27T10:19:15;103161.00;;;10.84;89.49
13612;BME280;6877;51.436;6.774;2024-01-27T10:22:00;103151.72;;;12.08;94.76
13612;BME280;6877;51.436;6.774;2024-01-27T10:24:33;103154.97;;;13.47;87.24
13612;BME280;6877;51.436;6.774;2024-01-27T10:27:03;103163.50;;;14.51;82.13
13612;BME280;6877;51.436;6.774;2024-01-27T10:29:34;103155.72;;;15.71;76.02
13612;BME280;6877;51.436;6.774;2024-01-27T10:32:09;103164.88;;;17.02;71.52
13612;BME280;6877;51.436;6.774;2024-01-27T10:34:36;103168.16;;;18.26;67.12
13612;BME280;6877;51.436;6.774;2024-01-27T10:37:12;103175.50;;;19.31;61.51
13612;BME280;6877;51.436;6.774;2024-01-27T10:39:39;103172.56;;;19.48;58.83
13612;BME280;6877;51.436;6.774;2024-01-27T10:42:10;103167.81;;;19.66;57.21
13612;BME280;6877;51.436;6.774;2024-01-27T10:44:43;103170.06;;;18.83;54.53
13612;BME280;6877;51.436;6.774;2024-01-27T10:47:11;103163.94;;;18.78;55.80
13612;BME280;6877;51.436;6.774;2024-01-27T10:49:48;103167.97;;;19.03;55.56
13612;BME280;6877;51.436;6.774;2024-01-27T10:52:17;103178.63;;;19.56;53.87
13612;BME280;6877;51.436;6.774;2024-01-27T10:54:51;103162.78;;;18.32;52.14
13612;BME280;6877;51.436;6.774;2024-01-27T10:57:18;103151.34;;;15.10;57.20
13612;BME280;6877;51.436;6.774;2024-01-27T10:59:45;103143.50;;;12.52;65.28
13612;BME280;6877;51.436;6.774;2024-01-27T11:02:14;103145.41;;;10.43;74.62
13612;BME280;6877;51.436;6.774;2024-01-27T11:04:42;103136.56;;;8.92;85.86
13612;BME280;6877;51.436;6.774;2024-01-27T11:07:08;103135.38;;;7.90;96.19
13612;BME280;6877;51.436;6.774;2024-01-27T11:09:42;103137.03;;;7.07;100.00
13612;BME280;6877;51.436;6.774;2024-01-27T11:12:09;103129.00;;;6.51;100.00
13612;BME280;6877;51.436;6.774;2024-01-27T11:14:41;103127.50;;;6.11;100.00
13612;BME280;6877;51.436;6.774;2024-01-27T11:17:13;103125.00;;;5.92;100.00
13612;BME280;6877;51.436;6.774;2024-01-27T11:19:45;103126.34;;;5.82;100.00
13612;BME280;6877;51.436;6.774;2024-01-27T11:22:28;103127.06;;;5.78;100.00
13612;BME280;6877;51.436;6.774;2024-01-27T11:25:20;103116.22;;;5.67;100.00
13612;BME280;6877;51.436;6.774;2024-01-27T11:27:51;103123.91;;;5.64;100.00
13612;BME280;6877;51.436;6.774;2024-01-27T11:30:28;103130.78;;;5.62;100.00
13612;BME280;6877;51.436;6.774;2024-01-27T11:32:56;103122.78;;;5.57;100.00
13612;BME280;6877;51.436;6.774;2024-01-27T11:35:24;103123.56;;;5.55;100.00
13612;BME280;6877;51.436;6.774;2024-01-27T11:37:55;103115.09;;;5.61;100.00
13612;BME280;6877;51.436;6.774;2024-01-27T11:40:22;103112.00;;;5.69;100.00
13612;BME280;6877;51.436;6.774;2024-01-27T11:43:01;103117.50;;;5.77;100.00
13612;BME280;6877;51.436;6.774;2024-01-27T11:45:28;103119.44;;;5.82;100.00
13612;BME280;6877;51.436;6.774;2024-01-27T11:48:04;103126.66;;;5.90;100.00
13612;BME280;6877;51.436;6.774;2024-01-27T11:50:30;103121.34;;;5.87;100.00
13612;BME280;6877;51.436;6.774;2024-01-27T11:52:57;103117.03;;;5.87;100.00
13612;BME280;6877;51.436;6.774;2024-01-27T11:55:28;103128.44;;;5.91;100.00
13612;BME280;6877;51.436;6.774;2024-01-27T11:57:54;103114.03;;;5.99;100.00
13612;BME280;6877;51.436;6.774;2024-01-27T12:00:21;103106.53;;;6.07;100.00
13612;BME280;6877;51.436;6.774;2024-01-27T12:02:50;103105.81;;;6.11;100.00
13612;BME280;6877;51.436;6.774;2024-01-27T12:05:18;103118.91;;;6.12;100.00
13612;BME280;6877;51.436;6.774;2024-01-27T12:07:49;103111.09;;;6.12;100.00
13612;BME280;6877;51.436;6.774;2024-01-27T12:10:21;103110.41;;;6.18;100.00
13612;BME280;6877;51.436;6.774;2024-01-27T12:12:47;103103.69;;;6.23;100.00
13612;BME280;6877;51.436;6.774;2024-01-27T12:15:14;103110.00;;;6.30;100.00
13612;BME280;6877;51.436;6.774;2024-01-27T12:17:51;103104.09;;;6.34;100.00
13612;BME280;6877;51.436;6.774;2024-01-27T12:20:17;103112.94;;;6.39;100.00
13612;BME280;6877;51.436;6.774;2024-01-27T12:22:44;103100.16;;;6.45;100.00
13612;BME280;6877;51.436;6.774;2024-01-27T12:25:16;103098.63;;;6.50;100.00
13612;BME280;6877;51.436;6.774;2024-01-27T12:27:43;103107.53;;;6.57;100.00
13612;BME280;6877;51.436;6.774;2024-01-27T12:30:15;103096.44;;;6.62;100.00
13612;BME280;6877;51.436;6.774;2024-01-27T12:32:47;103103.63;;;6.69;100.00
13612;BME280;6877;51.436;6.774;2024-01-27T12:35:18;103104.63;;;6.73;100.00
13612;BME280;6877;51.436;6.774;2024-01-27T12:37:50;103102.16;;;6.78;100.00
13612;BME280;6877;51.436;6.774;2024-01-27T12:40:17;103089.16;;;6.78;100.00
13612;BME280;6877;51.436;6.774;2024-01-27T12:42:44;103096.16;;;6.79;100.00
13612;BME280;6877;51.436;6.774;2024-01-27T12:45:15;103090.00;;;6.77;100.00
13612;BME280;6877;51.436;6.774;2024-01-27T12:47:42;103088.34;;;6.79;100.00
13612;BME280;6877;51.436;6.774;2024-01-27T12:50:08;103098.84;;;6.82;100.00
13612;BME280;6877;51.436;6.774;2024-01-27T12:52:36;103093.53;;;6.79;100.00
13612;BME280;6877;51.436;6.774;2024-01-27T12:55:04;103088.38;;;6.80;100.00
13612;BME280;6877;51.436;6.774;2024-01-27T12:57:36;103091.97;;;6.84;100.00
13612;BME280;6877;51.436;6.774;2024-01-27T13:00:08;103086.88;;;6.87;100.00
13612;BME280;6877;51.436;6.774;2024-01-27T13:02:42;103093.91;;;6.89;100.00
13612;BME280;6877;51.436;6.774;2024-01-27T13:05:09;103093.03;;;6.89;100.00